This is the latest recevied weather packets stored in our database for station/object SP9MLI-1. If no packets are shown the sender has not sent any weather packets the latest 10 day(s).
| Time | Temp. | Humidity | Pressure | Rain* | Wind** | Luminosity | Snow |
|---|---|---|---|---|---|---|---|
| 1777978393 | 19.44° C | 54% | 1013 hPa | 0 mm | - | - | - |
| 1777977572 | 19.44° C | 54% | 1013 hPa | 0 mm | - | - | - |
| 1777976594 | 19.44° C | 54% | 1013 hPa | 0 mm | - | - | - |
| 1777975695 | 20.56° C | 57% | 1013 hPa | 0 mm | - | - | - |
| 1777974793 | 21.11° C | 55% | 1013.3 hPa | 0 mm | - | - | - |
| 1777973894 | 21.67° C | 56% | 1013.3 hPa | 0 mm | - | - | - |
| 1777972993 | 21.67° C | 50% | 1013.3 hPa | 0 mm | - | - | - |
| 1777972093 | 20.56° C | 50% | 1013 hPa | 0 mm | - | - | - |
| 1777971194 | 20° C | 52% | 1013 hPa | 0 mm | - | - | - |
| 1777970293 | 19.44° C | 51% | 1013 hPa | 0 mm | - | - | - |
| 1777969395 | 18.89° C | 51% | 1013 hPa | 0 mm | - | - | - |
| 1777968493 | 18.89° C | 54% | 1013 hPa | 0 mm | - | - | - |
| 1777967592 | 19.44° C | 53% | 1013 hPa | 0 mm | - | - | - |
| 1777966693 | 20° C | 53% | 1013 hPa | 0 mm | - | - | - |
| 1777965793 | 20.56° C | 47% | 1013 hPa | 0 mm | - | - | - |
| 1777965048 | 20° C | 48% | 1012.6 hPa | 0 mm | - | - | - |
| 1777963992 | 19.44° C | 57% | 1012.3 hPa | 0 mm | - | - | - |
| 1777963092 | 19.44° C | 54% | 1012.3 hPa | 0 mm | - | - | - |
| 1777962192 | 18.89° C | 58% | 1012 hPa | 0 mm | - | - | - |
| 1777961292 | 18.33° C | 62% | 1012 hPa | 0 mm | - | - | - |
| 1777960392 | 16.67° C | 62% | 1012 hPa | 0 mm | - | - | - |
| 1777959493 | 16.67° C | 68% | 1011.6 hPa | 0 mm | - | - | - |
| 1777958595 | 16.67° C | 71% | 1010.9 hPa | 0 mm | - | - | - |
| 1777957693 | 15.56° C | 71% | 1010.9 hPa | 0 mm | - | - | - |
| 1777956792 | 13.89° C | 73% | 1010.6 hPa | 0 mm | - | - | - |
* Rain latest hour (hover to see other rain measurements)
** Current wind speed in m/s (hover to see current wind gust speed)